createdAt,value
2023-02-07T00:02:00.346Z,52.17
2023-02-07T00:04:29.700Z,51.56
2023-02-07T00:06:59.273Z,51.79
2023-02-07T00:09:28.535Z,52.23
2023-02-07T00:11:58.033Z,52.18
2023-02-07T00:14:28.710Z,52.86
2023-02-07T00:16:58.321Z,52.43
2023-02-07T00:19:27.644Z,52.88
2023-02-07T00:21:57.248Z,51.83
2023-02-07T00:24:26.626Z,51.57
2023-02-07T00:26:56.121Z,51.25
2023-02-07T00:29:25.389Z,52.72
2023-02-07T00:31:56.915Z,52.36
2023-02-07T00:34:26.373Z,52.75
2023-02-07T00:36:55.934Z,52.02
2023-02-07T00:39:25.256Z,52.51
2023-02-07T00:41:55.289Z,53.25
2023-02-07T00:44:25.012Z,51.82
2023-02-07T00:46:55.953Z,52.89
2023-02-07T00:49:25.585Z,52.40
2023-02-07T00:51:55.024Z,52.00
2023-02-07T00:54:24.266Z,50.99
2023-02-07T00:56:54.986Z,51.63
2023-02-07T00:59:24.240Z,52.08
2023-02-07T01:01:55.122Z,51.77
2023-02-07T01:04:24.421Z,51.84
2023-02-07T01:06:53.907Z,52.56
2023-02-07T01:09:23.136Z,52.40
2023-02-07T01:11:52.597Z,52.08
2023-02-07T01:14:21.790Z,51.29
2023-02-07T01:16:51.994Z,52.38
2023-02-07T01:19:23.288Z,51.56
2023-02-07T01:21:53.312Z,52.06
2023-02-07T01:24:22.449Z,50.93
2023-02-07T01:26:51.978Z,52.33
2023-02-07T01:29:21.152Z,52.49
2023-02-07T01:31:51.794Z,50.95
2023-02-07T01:34:22.955Z,52.79
2023-02-07T01:36:52.513Z,51.92
2023-02-07T01:39:21.836Z,51.20
2023-02-07T01:41:51.815Z,50.99
2023-02-07T01:45:02.350Z,50.82
2023-02-07T01:47:32.597Z,50.75
2023-02-07T01:50:03.888Z,50.68
2023-02-07T01:52:35.557Z,50.84
2023-02-07T01:55:09.052Z,50.89
2023-02-07T01:57:38.853Z,50.93
2023-02-07T02:00:10.763Z,50.82
2023-02-07T02:02:44.719Z,51.25
2023-02-07T02:05:19.170Z,51.80
2023-02-07T02:07:49.884Z,51.32
2023-02-07T02:10:22.873Z,51.39
2023-02-07T02:13:19.820Z,50.88
2023-02-07T02:15:59.188Z,51.04
2023-02-07T02:18:55.882Z,51.50
2023-02-07T02:21:55.332Z,51.39
2023-02-07T02:24:54.389Z,51.25
2023-02-07T02:27:35.435Z,51.94
2023-02-07T02:30:25.024Z,52.47
2023-02-07T02:33:38.696Z,52.70
2023-02-07T02:36:17.702Z,52.48
2023-02-07T02:38:55.659Z,52.31
2023-02-07T02:41:31.417Z,52.29
2023-02-07T02:44:05.786Z,51.30
2023-02-07T02:46:39.439Z,51.71
2023-02-07T02:49:13.007Z,52.74
2023-02-07T02:51:42.609Z,52.80
2023-02-07T02:54:31.172Z,52.95
2023-02-07T02:57:45.426Z,52.58
2023-02-07T03:00:38.093Z,52.70
2023-02-07T03:03:36.540Z,52.04
2023-02-07T03:06:17.974Z,53.15
2023-02-07T03:08:55.460Z,54.52
2023-02-07T03:11:26.710Z,54.16
2023-02-07T03:14:06.012Z,53.21
2023-02-07T03:16:40.720Z,53.36
2023-02-07T03:19:16.347Z,53.55
2023-02-07T03:21:51.247Z,54.48
2023-02-07T03:24:27.260Z,53.78
2023-02-07T03:27:00.092Z,53.73
2023-02-07T03:29:31.842Z,52.64
2023-02-07T03:37:00.130Z,52.49
2023-02-07T03:39:29.854Z,53.25
2023-02-07T03:42:02.296Z,52.51
2023-02-07T03:44:34.678Z,52.44
2023-02-07T03:47:05.516Z,53.22
2023-02-07T03:49:34.754Z,52.65
2023-02-07T03:52:05.950Z,52.06
2023-02-07T03:54:35.126Z,51.84
2023-02-07T03:57:04.783Z,51.88
2023-02-07T03:59:34.099Z,52.02
2023-02-07T04:02:03.918Z,52.50
2023-02-07T04:04:33.253Z,52.62
2023-02-07T04:07:04.346Z,52.27
2023-02-07T04:09:33.803Z,55.35
2023-02-07T04:12:04.251Z,53.02
2023-02-07T04:14:33.486Z,52.27
2023-02-07T04:17:03.290Z,52.78
2023-02-07T04:19:32.690Z,53.04
2023-02-07T04:22:02.345Z,52.57
2023-02-07T04:24:33.188Z,52.39
2023-02-07T04:27:02.765Z,52.60
2023-02-07T04:29:32.127Z,52.60
2023-02-07T04:32:02.926Z,53.18
2023-02-07T04:34:32.273Z,53.21
2023-02-07T04:37:02.079Z,53.89
2023-02-07T04:39:32.747Z,53.86
2023-02-07T04:42:02.242Z,54.24
2023-02-07T04:44:32.191Z,53.98
2023-02-07T04:47:01.776Z,53.34
2023-02-07T04:49:33.994Z,53.19
2023-02-07T04:52:04.003Z,53.24
2023-02-07T04:54:34.559Z,53.07
2023-02-07T04:57:04.105Z,53.85
2023-02-07T04:59:33.710Z,53.63
2023-02-07T05:02:03.432Z,53.71
2023-02-07T05:04:33.057Z,53.66
2023-02-07T05:07:02.744Z,54.08
2023-02-07T05:09:33.364Z,54.00
2023-02-07T05:12:02.946Z,54.15
2023-02-07T05:14:32.133Z,54.21
2023-02-07T05:17:01.625Z,53.84
2023-02-07T05:19:30.789Z,53.93
2023-02-07T05:22:00.358Z,54.17
2023-02-07T05:24:29.787Z,54.19
2023-02-07T05:27:00.660Z,53.91
2023-02-07T05:29:30.040Z,54.15
2023-02-07T05:32:17.285Z,54.31
2023-02-07T05:34:46.619Z,54.66
2023-02-07T05:37:16.176Z,54.31
2023-02-07T05:39:45.298Z,54.19
2023-02-07T05:42:16.130Z,54.39
2023-02-07T05:44:45.882Z,54.28
2023-02-07T05:47:15.346Z,55.10
2023-02-07T05:49:44.494Z,55.01
2023-02-07T05:52:14.218Z,56.12
2023-02-07T05:54:43.516Z,57.31
2023-02-07T05:57:12.929Z,56.18
2023-02-07T05:59:43.547Z,55.58
2023-02-07T06:02:13.227Z,58.02
2023-02-07T06:04:42.449Z,55.96
2023-02-07T06:07:11.973Z,55.01
2023-02-07T06:09:41.174Z,57.15
2023-02-07T06:12:10.788Z,55.81
2023-02-07T06:14:40.060Z,56.33
2023-02-07T06:17:11.053Z,55.68
2023-02-07T06:19:40.263Z,55.57
2023-02-07T06:22:09.943Z,55.16
2023-02-07T06:24:39.293Z,54.45
2023-02-07T06:27:08.844Z,56.14
2023-02-07T06:29:38.320Z,57.12
2023-02-07T06:32:09.273Z,56.67
2023-02-07T06:34:38.425Z,55.45
2023-02-07T06:37:08.076Z,54.34
2023-02-07T06:39:37.284Z,55.38
2023-02-07T06:42:06.806Z,55.35
2023-02-07T06:44:36.018Z,54.65
2023-02-07T06:47:05.569Z,54.52
2023-02-07T06:49:36.278Z,55.22
2023-02-07T06:52:05.988Z,55.49
2023-02-07T06:54:35.931Z,55.44
2023-02-07T06:57:05.778Z,55.17
2023-02-07T06:59:35.057Z,54.89
2023-02-07T07:02:04.791Z,55.23
2023-02-07T07:04:35.811Z,54.84
2023-02-07T07:07:06.212Z,55.36
2023-02-07T07:09:35.616Z,54.64
2023-02-07T07:12:06.042Z,55.11
2023-02-07T07:14:36.077Z,54.98
2023-02-07T07:17:06.088Z,55.45
2023-02-07T07:19:36.737Z,55.21
2023-02-07T07:22:06.319Z,55.63
2023-02-07T07:24:35.430Z,55.18
2023-02-07T07:27:05.097Z,54.28
2023-02-07T07:29:34.443Z,55.33
2023-02-07T07:32:04.586Z,54.95
2023-02-07T07:34:35.553Z,54.82
2023-02-07T07:37:05.053Z,54.57
2023-02-07T07:39:34.489Z,54.14
2023-02-07T07:42:18.053Z,54.02
2023-02-07T07:45:01.683Z,54.16
2023-02-07T07:47:31.204Z,54.10
2023-02-07T07:50:02.059Z,54.15
2023-02-07T07:52:31.627Z,53.82
2023-02-07T07:55:00.887Z,53.95
2023-02-07T07:57:30.295Z,53.55
2023-02-07T07:59:59.453Z,53.34
2023-02-07T08:02:29.124Z,52.85
2023-02-07T08:04:58.427Z,52.79
2023-02-07T08:07:29.761Z,52.96
2023-02-07T08:09:59.185Z,53.45
2023-02-07T08:12:28.999Z,54.79
2023-02-07T08:14:58.257Z,54.23
2023-02-07T08:17:27.894Z,52.74
2023-02-07T08:19:57.253Z,53.13
2023-02-07T08:22:28.131Z,52.62
2023-02-07T08:24:57.328Z,51.75
2023-02-07T08:27:26.973Z,51.34
2023-02-07T08:29:58.052Z,51.98
2023-02-07T08:32:28.701Z,52.59
2023-02-07T08:34:58.018Z,51.75
2023-02-07T08:37:28.915Z,51.81
2023-02-07T08:39:58.261Z,50.77
2023-02-07T08:42:27.874Z,52.82
2023-02-07T08:44:57.995Z,54.04
2023-02-07T08:47:27.504Z,52.88
2023-02-07T08:49:56.763Z,53.42
2023-02-07T08:52:28.295Z,52.02
2023-02-07T08:54:59.682Z,51.30
2023-02-07T08:57:29.504Z,50.65
2023-02-07T08:59:59.611Z,50.73
2023-02-07T09:02:29.691Z,52.29
2023-02-07T09:04:59.368Z,52.86
2023-02-07T09:07:28.887Z,51.83
2023-02-07T09:09:59.483Z,52.20
2023-02-07T09:12:29.193Z,53.09
2023-02-07T09:14:58.458Z,50.80
2023-02-07T09:17:28.179Z,51.03
2023-02-07T09:19:57.552Z,50.14
2023-02-07T09:22:27.116Z,50.01
2023-02-07T09:24:57.391Z,49.04
2023-02-07T09:27:28.391Z,48.75
2023-02-07T09:29:57.667Z,48.51
2023-02-07T09:32:27.206Z,46.99
2023-02-07T09:34:58.461Z,46.69
2023-02-07T09:37:28.782Z,46.46
2023-02-07T09:39:58.964Z,47.44
2023-02-07T09:42:35.964Z,47.44
2023-02-07T09:45:11.031Z,48.47
2023-02-07T09:47:44.358Z,46.72
2023-02-07T09:50:19.818Z,45.21
2023-02-07T09:52:54.423Z,45.67
2023-02-07T09:55:26.003Z,45.63
2023-02-07T09:58:02.016Z,45.62
2023-02-07T10:00:34.868Z,45.18
2023-02-07T10:03:12.389Z,43.28
2023-02-07T10:05:46.937Z,43.14
2023-02-07T10:08:18.916Z,39.77
2023-02-07T10:10:53.617Z,40.76
2023-02-07T10:13:49.252Z,39.61
2023-02-07T10:16:37.045Z,39.09
2023-02-07T10:19:20.129Z,41.84
2023-02-07T10:21:56.471Z,42.26
2023-02-07T10:24:53.012Z,42.16
2023-02-07T10:27:30.884Z,42.56
2023-02-07T10:30:11.396Z,45.11
2023-02-07T10:32:43.511Z,45.24
2023-02-07T10:35:20.397Z,45.13
2023-02-07T10:37:52.807Z,46.73
2023-02-07T10:40:27.540Z,46.75
2023-02-07T10:43:03.168Z,46.90
2023-02-07T10:45:34.425Z,47.75
2023-02-07T10:48:03.949Z,48.21
2023-02-07T10:50:33.516Z,47.94
2023-02-07T10:53:02.762Z,46.70
2023-02-07T10:55:41.522Z,47.41
2023-02-07T10:58:22.809Z,47.12
2023-02-07T11:00:57.145Z,46.46
2023-02-07T11:03:27.391Z,47.55
2023-02-07T11:05:59.352Z,48.07
2023-02-07T11:08:30.813Z,47.60
2023-02-07T11:11:01.932Z,47.19
2023-02-07T11:13:32.921Z,47.11
2023-02-07T11:16:07.329Z,48.75
2023-02-07T11:18:44.828Z,49.00
2023-02-07T11:21:39.425Z,49.46
2023-02-07T11:24:14.660Z,48.71
2023-02-07T11:26:57.552Z,48.42
2023-02-07T11:29:27.825Z,46.94
2023-02-07T11:32:01.762Z,47.38
2023-02-07T11:34:45.955Z,47.98
2023-02-07T11:37:30.498Z,47.18
2023-02-07T11:40:25.674Z,47.44
2023-02-07T11:43:02.061Z,46.24
2023-02-07T11:45:34.614Z,46.40
2023-02-07T11:48:06.952Z,47.81
2023-02-07T11:50:40.233Z,47.65
2023-02-07T11:53:25.036Z,48.23
2023-02-07T11:55:58.166Z,47.25
2023-02-07T11:58:34.765Z,47.78
2023-02-07T12:01:06.188Z,48.09
2023-02-07T12:03:45.020Z,46.31
2023-02-07T12:06:18.081Z,46.39
2023-02-07T12:08:48.126Z,46.94
2023-02-07T12:11:22.735Z,47.02
2023-02-07T12:13:56.623Z,46.04
2023-02-07T12:16:30.778Z,46.00
2023-02-07T12:19:06.607Z,46.39
2023-02-07T12:21:42.304Z,46.88
2023-02-07T12:24:18.466Z,46.68
2023-02-07T12:26:53.357Z,47.04
2023-02-07T12:29:31.998Z,46.54
2023-02-07T12:32:08.909Z,44.87
2023-02-07T12:34:49.646Z,45.06
2023-02-07T12:37:27.821Z,44.47
2023-02-07T12:40:05.005Z,44.53
2023-02-07T12:42:41.424Z,42.98
2023-02-07T12:45:16.941Z,37.24
2023-02-07T12:47:57.034Z,36.41
2023-02-07T12:50:43.955Z,40.59
2023-02-07T12:53:30.981Z,40.70
2023-02-07T12:56:12.501Z,42.08
2023-02-07T12:58:53.277Z,40.17
2023-02-07T13:01:32.297Z,35.41
2023-02-07T13:04:20.777Z,34.76
2023-02-07T13:07:06.878Z,35.77
2023-02-07T13:09:44.275Z,34.60
2023-02-07T13:12:19.434Z,32.47
2023-02-07T13:15:02.715Z,30.71
2023-02-07T13:17:46.903Z,30.88
2023-02-07T13:20:31.680Z,29.94
2023-02-07T13:23:05.363Z,29.52
2023-02-07T13:25:38.358Z,31.85
2023-02-07T13:28:15.179Z,34.78
2023-02-07T13:30:44.658Z,34.13
2023-02-07T13:33:31.310Z,32.42
2023-02-07T13:36:07.165Z,31.04
2023-02-07T13:38:54.900Z,30.15
2023-02-07T13:41:34.190Z,31.65
2023-02-07T13:44:12.303Z,30.51
2023-02-07T13:47:02.711Z,32.12
2023-02-07T13:49:44.653Z,32.76
2023-02-07T13:52:20.035Z,35.56
2023-02-07T13:55:00.535Z,33.72
2023-02-07T13:58:02.021Z,35.87
2023-02-07T14:00:33.175Z,39.48
2023-02-07T14:03:04.683Z,37.52
2023-02-07T14:05:36.512Z,36.33
2023-02-07T14:08:22.235Z,35.11
2023-02-07T14:10:54.147Z,35.14
2023-02-07T14:13:30.599Z,35.74
2023-02-07T14:16:10.241Z,38.32
2023-02-07T14:18:50.912Z,39.53
2023-02-07T14:21:42.354Z,39.11
2023-02-07T14:24:38.455Z,40.36
2023-02-07T14:27:29.350Z,42.03
2023-02-07T14:30:22.882Z,42.75
2023-02-07T14:33:16.096Z,45.67
2023-02-07T14:36:07.123Z,47.63
2023-02-07T14:38:40.004Z,45.84
2023-02-07T14:41:13.556Z,45.43
2023-02-07T14:44:08.108Z,45.68
2023-02-07T14:46:42.088Z,47.21
2023-02-07T14:49:20.043Z,46.56
2023-02-07T14:51:53.060Z,46.52
2023-02-07T14:54:30.650Z,47.08
2023-02-07T14:57:08.870Z,46.92
2023-02-07T14:59:44.977Z,47.52
2023-02-07T15:02:36.001Z,46.82
2023-02-07T15:05:24.631Z,47.64
2023-02-07T15:08:10.087Z,48.65
2023-02-07T15:10:42.973Z,48.90
2023-02-07T15:13:23.632Z,48.20
2023-02-07T15:15:57.984Z,49.27
2023-02-07T15:18:29.750Z,49.69
2023-02-07T15:21:00.172Z,50.54
2023-02-07T15:23:32.109Z,49.60
2023-02-07T15:26:06.424Z,50.30
2023-02-07T15:28:36.890Z,50.48
2023-02-07T15:31:13.669Z,50.42
2023-02-07T15:33:52.113Z,50.07
2023-02-07T15:36:43.150Z,50.22
2023-02-07T15:39:17.399Z,50.14
2023-02-07T15:41:47.759Z,50.21
2023-02-07T15:44:24.532Z,50.58
2023-02-07T15:46:57.972Z,51.02
2023-02-07T15:49:30.461Z,50.32
2023-02-07T15:52:07.226Z,50.05
2023-02-07T15:54:40.519Z,50.97
2023-02-07T15:57:23.910Z,50.18
2023-02-07T15:59:55.486Z,50.37
2023-02-07T16:02:31.733Z,50.47
2023-02-07T16:05:10.597Z,50.67
2023-02-07T16:07:40.595Z,51.28
2023-02-07T16:10:33.235Z,51.06
2023-02-07T16:13:03.935Z,50.98
2023-02-07T16:15:34.922Z,51.16
2023-02-07T16:18:07.590Z,51.35
2023-02-07T16:20:38.545Z,51.32
2023-02-07T16:23:10.925Z,51.26
2023-02-07T16:25:42.360Z,52.37
2023-02-07T16:28:16.639Z,52.04
2023-02-07T16:30:46.433Z,51.37
2023-02-07T16:33:17.595Z,51.83
2023-02-07T16:35:47.158Z,51.66
2023-02-07T16:38:16.780Z,51.08
2023-02-07T16:40:46.466Z,51.67
2023-02-07T16:43:35.440Z,51.18
2023-02-07T16:46:05.101Z,51.23
2023-02-07T16:48:36.119Z,51.41
2023-02-07T16:51:05.879Z,52.15
2023-02-07T16:53:35.636Z,51.72
2023-02-07T16:56:05.483Z,51.32
2023-02-07T16:58:36.108Z,51.55
2023-02-07T17:01:06.011Z,51.51
2023-02-07T17:03:37.083Z,51.22
2023-02-07T17:06:08.483Z,50.56
2023-02-07T17:08:38.285Z,51.47
2023-02-07T17:11:09.453Z,51.73
2023-02-07T17:13:39.197Z,52.10
2023-02-07T17:16:12.677Z,51.50
2023-02-07T17:18:43.948Z,51.99
2023-02-07T17:21:14.670Z,51.16
2023-02-07T17:23:44.791Z,51.60
2023-02-07T17:26:22.504Z,51.63
2023-02-07T17:28:53.350Z,51.64
2023-02-07T17:31:23.025Z,51.59
2023-02-07T17:33:54.196Z,51.01
2023-02-07T17:36:23.574Z,51.47
2023-02-07T17:38:54.206Z,51.53
2023-02-07T17:41:25.006Z,51.83
2023-02-07T17:43:54.928Z,51.83
2023-02-07T17:46:25.886Z,52.22
2023-02-07T17:48:56.960Z,52.08
2023-02-07T17:51:27.702Z,51.69
2023-02-07T17:53:58.494Z,51.67
2023-02-07T17:56:30.052Z,51.08
2023-02-07T17:59:02.279Z,50.76
2023-02-07T18:01:34.542Z,50.96
2023-02-07T18:04:06.845Z,50.92
2023-02-07T18:06:36.558Z,50.83
2023-02-07T18:09:06.262Z,50.54
2023-02-07T18:11:35.855Z,50.75
2023-02-07T18:14:05.804Z,50.72
2023-02-07T18:16:35.387Z,51.56
2023-02-07T18:19:06.626Z,52.20
2023-02-07T18:21:37.640Z,52.24
2023-02-07T18:24:07.696Z,52.01
2023-02-07T18:26:37.433Z,51.41
2023-02-07T18:29:08.595Z,51.13
2023-02-07T18:31:38.652Z,51.88
2023-02-07T18:34:09.877Z,51.92
2023-02-07T18:36:40.618Z,51.67
2023-02-07T18:39:12.094Z,52.85
2023-02-07T18:41:42.006Z,51.90
2023-02-07T18:44:12.143Z,52.69
2023-02-07T18:46:42.046Z,52.33
2023-02-07T18:49:14.792Z,51.96
2023-02-07T18:51:45.109Z,51.58
2023-02-07T18:54:17.647Z,51.84
2023-02-07T18:56:52.285Z,53.13
2023-02-07T18:59:22.867Z,53.47
2023-02-07T19:01:53.966Z,52.21
2023-02-07T19:04:25.906Z,52.16
2023-02-07T19:06:55.501Z,54.22
2023-02-07T19:09:25.863Z,53.34
2023-02-07T19:11:57.372Z,52.87
2023-02-07T19:14:30.882Z,53.61
2023-02-07T19:17:01.237Z,53.27
2023-02-07T19:19:33.410Z,53.74
2023-02-07T19:22:03.065Z,53.47
2023-02-07T19:24:33.700Z,53.39
2023-02-07T19:27:03.233Z,52.85
2023-02-07T19:29:33.536Z,53.01
2023-02-07T19:32:05.401Z,52.38
2023-02-07T19:34:37.953Z,51.52
2023-02-07T19:37:07.208Z,51.19
2023-02-07T19:39:37.209Z,51.89
2023-02-07T19:42:07.390Z,52.22
2023-02-07T19:44:36.971Z,52.32
2023-02-07T19:47:06.448Z,52.60
2023-02-07T19:49:37.774Z,52.69
2023-02-07T19:52:07.859Z,52.80
2023-02-07T19:54:38.090Z,52.66
2023-02-07T19:57:07.651Z,51.92
2023-02-07T19:59:37.738Z,51.26
2023-02-07T20:02:07.708Z,52.55
2023-02-07T20:04:39.376Z,52.89
2023-02-07T20:07:08.773Z,51.64
2023-02-07T20:09:38.493Z,51.40
2023-02-07T20:12:08.545Z,51.34
2023-02-07T20:14:38.199Z,51.26
2023-02-07T20:17:07.759Z,51.65
2023-02-07T20:19:38.946Z,51.62
2023-02-07T20:22:08.221Z,50.82
2023-02-07T20:24:38.342Z,51.44
2023-02-07T20:27:07.953Z,51.57
2023-02-07T20:29:37.708Z,51.14
2023-02-07T20:32:07.031Z,51.16
2023-02-07T20:34:40.839Z,50.93
2023-02-07T20:37:11.515Z,51.58
2023-02-07T20:39:41.021Z,52.73
2023-02-07T20:42:10.675Z,51.82
2023-02-07T20:44:42.543Z,51.91
2023-02-07T20:47:13.117Z,51.63
2023-02-07T20:49:44.045Z,51.77
2023-02-07T20:52:13.323Z,51.91
2023-02-07T20:54:43.240Z,52.15
2023-02-07T20:57:12.555Z,52.97
2023-02-07T20:59:42.650Z,52.63
2023-02-07T21:02:12.347Z,53.21
2023-02-07T21:04:43.263Z,54.15
2023-02-07T21:07:12.493Z,53.66
2023-02-07T21:09:42.701Z,54.14
2023-02-07T21:12:11.884Z,53.65
2023-02-07T21:14:42.546Z,53.66
2023-02-07T21:17:13.364Z,54.39
2023-02-07T21:19:44.662Z,53.91
2023-02-07T21:22:14.058Z,53.42
2023-02-07T21:24:43.864Z,53.82
2023-02-07T21:27:13.261Z,54.07
2023-02-07T21:29:43.303Z,54.00
2023-02-07T21:32:12.693Z,53.92
2023-02-07T21:34:44.369Z,54.66
2023-02-07T21:37:13.710Z,54.29
2023-02-07T21:39:43.200Z,54.78
2023-02-07T21:42:12.526Z,54.62
2023-02-07T21:44:42.060Z,54.43
2023-02-07T21:47:11.331Z,54.52
2023-02-07T21:49:41.029Z,54.49
2023-02-07T21:52:12.075Z,54.61
2023-02-07T21:54:41.698Z,54.40
2023-02-07T21:57:11.118Z,54.42
2023-02-07T21:59:42.541Z,54.45
2023-02-07T22:02:12.912Z,54.71
2023-02-07T22:04:42.798Z,54.50
2023-02-07T22:07:13.394Z,54.38
2023-02-07T22:09:43.119Z,53.89
2023-02-07T22:12:12.288Z,54.19
2023-02-07T22:14:41.908Z,53.96
2023-02-07T22:17:11.427Z,53.74
2023-02-07T22:19:40.954Z,54.80
2023-02-07T22:22:10.126Z,54.85
2023-02-07T22:24:41.102Z,54.83
2023-02-07T22:27:10.336Z,55.52
2023-02-07T22:29:39.980Z,55.97
2023-02-07T22:32:09.129Z,55.76
2023-02-07T22:34:40.865Z,55.20
2023-02-07T22:37:10.022Z,54.06
2023-02-07T22:39:40.974Z,54.59
2023-02-07T22:42:10.104Z,54.70
2023-02-07T22:44:39.848Z,55.95
2023-02-07T22:47:09.154Z,55.10
2023-02-07T22:49:41.165Z,56.61
2023-02-07T22:52:10.369Z,58.06
2023-02-07T22:54:41.266Z,56.20
2023-02-07T22:57:13.422Z,55.45
2023-02-07T22:59:43.026Z,56.42
2023-02-07T23:02:12.383Z,57.22
2023-02-07T23:04:41.949Z,56.52
2023-02-07T23:07:11.232Z,56.42
2023-02-07T23:09:42.257Z,55.12
2023-02-07T23:12:11.392Z,54.45
2023-02-07T23:14:40.877Z,57.23
2023-02-07T23:17:10.468Z,57.24
2023-02-07T23:19:40.200Z,56.61
2023-02-07T23:22:09.502Z,57.00
2023-02-07T23:24:39.007Z,56.42
2023-02-07T23:27:09.617Z,57.29
2023-02-07T23:29:39.117Z,56.02
2023-02-07T23:32:08.394Z,57.93
2023-02-07T23:34:37.916Z,57.04
2023-02-07T23:37:07.198Z,58.40
2023-02-07T23:39:36.825Z,57.68
2023-02-07T23:42:10.387Z,58.08
2023-02-07T23:44:41.409Z,56.47
2023-02-07T23:47:10.688Z,56.81
2023-02-07T23:49:40.178Z,58.43
2023-02-07T23:52:09.392Z,58.35
2023-02-07T23:54:38.974Z,58.69
2023-02-07T23:57:08.229Z,58.21
2023-02-07T23:59:37.767Z,58.81
